Time;durP1;ratioP1;P1;durP2;ratioP2;P2;SDS_P1;SDS_P2;PMS_P1;PMS_P2;Temp;Humidity;BMP_temperature;BMP_pressure;BME280_temperature;BME280_humidity;BME280_pressure;Samples;Min_cycle;Max_cycle;Signal;HPM_P1;HPM_P2
2022/08/17 00:01:54;;;;;;;;;;;;;;;19.93;55.84;95898.13;5075313;28;19958;-73
2022/08/17 00:04:20;;;;;;;;;;;;;;;19.88;56.16;95904.34;5075618;28;19966;-74
2022/08/17 00:06:47;;;;;;;;;;;;;;;19.84;56.37;95895.34;5075883;28;19956;-73
2022/08/17 00:09:13;;;;;;;;;;;;;;;19.80;56.60;95897.00;5075832;28;20337;-73
2022/08/17 00:11:40;;;;;;;;;;;;;;;19.77;56.50;95892.28;5075770;28;20426;-74
2022/08/17 00:14:08;;;;;;;;;;;;;;;19.71;56.30;95894.22;5075392;28;19989;-73
2022/08/17 00:16:36;;;;;;;;;;;;;;;19.68;56.67;95892.13;5075580;28;19976;-73
2022/08/17 00:19:03;;;;;;;;;;;;;;;19.65;56.77;95890.84;5075348;28;19953;-74
2022/08/17 00:21:30;;;;;;;;;;;;;;;19.63;57.01;95895.66;5075463;28;19955;-73
2022/08/17 00:23:56;;;;;;;;;;;;;;;19.60;56.84;95893.56;5075325;28;19965;-73
2022/08/17 00:26:23;;;;;;;;;;;;;;;19.57;56.92;95885.34;5075544;28;19958;-73
2022/08/17 00:28:49;;;;;;;;;;;;;;;19.52;56.89;95888.09;5075392;28;19963;-73
2022/08/17 00:31:15;;;;;;;;;;;;;;;19.48;56.82;95882.56;5075441;28;19979;-74
2022/08/17 00:33:42;;;;;;;;;;;;;;;19.45;57.01;95888.47;5075593;28;19997;-73
2022/08/17 00:36:08;;;;;;;;;;;;;;;19.40;57.38;95881.38;5075251;28;19974;-73
2022/08/17 00:38:34;;;;;;;;;;;;;;;19.37;57.33;95883.81;5075195;28;19952;-73
2022/08/17 00:41:11;;;;;;;;;;;;;;;19.34;57.44;95887.03;5075048;28;19955;-73
2022/08/17 00:43:37;;;;;;;;;;;;;;;19.30;57.47;95884.16;5074987;28;19960;-73
2022/08/17 00:46:05;;;;;;;;;;;;;;;19.27;57.73;95882.06;5074788;28;19972;-73
2022/08/17 00:48:31;;;;;;;;;;;;;;;19.23;57.79;95879.22;5074981;28;20320;-73
2022/08/17 00:51:00;;;;;;;;;;;;;;;19.20;58.07;95874.44;5074828;28;20418;-73
2022/08/17 00:53:28;;;;;;;;;;;;;;;19.18;58.08;95871.28;5073207;28;19963;-73
2022/08/17 00:55:54;;;;;;;;;;;;;;;19.16;58.10;95864.69;5074625;28;20329;-73
2022/08/17 00:58:20;;;;;;;;;;;;;;;19.13;58.07;95868.72;5073803;28;19967;-73
2022/08/17 01:00:46;;;;;;;;;;;;;;;19.11;58.25;95868.22;5057157;28;19968;-73
2022/08/17 01:03:17;;;;;;;;;;;;;;;19.09;58.36;95870.34;5074440;28;19959;-73
2022/08/17 01:05:45;;;;;;;;;;;;;;;19.07;58.37;95875.16;5074789;28;19978;-73
2022/08/17 01:08:12;;;;;;;;;;;;;;;19.05;59.08;95882.63;5074297;28;19952;-74
2022/08/17 01:10:43;;;;;;;;;;;;;;;19.02;59.06;95881.34;5074427;28;19966;-73
2022/08/17 01:13:10;;;;;;;;;;;;;;;18.99;58.88;95875.81;5074562;28;19969;-74
2022/08/17 01:15:38;;;;;;;;;;;;;;;18.98;58.95;95877.69;5074095;28;19985;-74
2022/08/17 01:18:06;;;;;;;;;;;;;;;18.95;58.93;95877.44;5074458;28;19971;-73
2022/08/17 01:20:32;;;;;;;;;;;;;;;18.94;59.11;95878.50;5074283;28;19975;-73
2022/08/17 01:22:59;;;;;;;;;;;;;;;18.92;59.20;95886.78;5073292;28;19988;-73
2022/08/17 01:25:26;;;;;;;;;;;;;;;18.91;59.52;95887.06;5074213;28;19972;-73
2022/08/17 01:27:52;;;;;;;;;;;;;;;18.89;59.33;95884.69;5074146;28;19958;-73
2022/08/17 01:30:18;;;;;;;;;;;;;;;18.86;59.78;95885.25;5074732;28;19960;-73
2022/08/17 01:32:44;;;;;;;;;;;;;;;18.84;59.84;95882.09;5073879;28;19971;-73
2022/08/17 01:35:10;;;;;;;;;;;;;;;18.82;59.35;95890.34;5074033;28;19969;-73
2022/08/17 01:37:38;;;;;;;;;;;;;;;18.80;59.79;95881.09;5073897;28;20015;-73
2022/08/17 01:40:08;;;;;;;;;;;;;;;18.78;59.88;95881.34;5073896;28;19958;-73
2022/08/17 01:42:40;;;;;;;;;;;;;;;18.78;60.21;95881.34;5073804;28;20029;-73
2022/08/17 01:45:18;;;;;;;;;;;;;;;18.76;60.33;95886.13;5073830;28;19961;-73
2022/08/17 01:47:44;;;;;;;;;;;;;;;18.76;60.23;95880.81;5074352;28;19967;-73
2022/08/17 01:50:15;;;;;;;;;;;;;;;18.74;60.27;95882.97;5073664;28;20336;-73
2022/08/17 01:52:45;;;;;;;;;;;;;;;18.74;60.29;95887.50;5073623;28;20370;-72
2022/08/17 01:55:12;;;;;;;;;;;;;;;18.73;60.35;95881.41;5073941;28;19959;-73
2022/08/17 01:57:38;;;;;;;;;;;;;;;18.73;60.21;95891.22;5073480;28;19969;-73
2022/08/17 02:00:05;;;;;;;;;;;;;;;18.72;60.32;95884.34;5073659;28;20468;-73
2022/08/17 02:02:31;;;;;;;;;;;;;;;18.71;60.17;95886.22;5073534;28;19953;-73
2022/08/17 02:04:57;;;;;;;;;;;;;;;18.71;60.24;95885.41;5073908;28;20417;-73
2022/08/17 02:07:23;;;;;;;;;;;;;;;18.70;60.48;95881.94;5073523;28;20333;-75
2022/08/17 02:09:49;;;;;;;;;;;;;;;18.71;60.42;95869.47;5073434;28;19983;-73
2022/08/17 02:12:15;;;;;;;;;;;;;;;18.74;60.16;95874.22;5073800;28;19985;-73
2022/08/17 02:14:42;;;;;;;;;;;;;;;18.73;60.41;95872.63;5073699;28;19976;-73
2022/08/17 02:17:08;;;;;;;;;;;;;;;18.73;60.17;95878.75;5073780;28;19979;-73
2022/08/17 02:19:34;;;;;;;;;;;;;;;18.75;60.09;95879.25;5073692;28;19954;-73
2022/08/17 02:22:00;;;;;;;;;;;;;;;18.74;60.51;95885.63;5073453;28;20021;-73
2022/08/17 02:24:30;;;;;;;;;;;;;;;18.72;59.96;95877.16;5073311;28;19963;-73
2022/08/17 02:26:56;;;;;;;;;;;;;;;18.71;59.98;95877.44;5073490;28;19957;-74
2022/08/17 02:29:22;;;;;;;;;;;;;;;18.69;60.30;95877.72;5073411;28;19966;-73
2022/08/17 02:31:48;;;;;;;;;;;;;;;18.66;60.35;95872.97;5073399;28;19962;-73
2022/08/17 02:34:14;;;;;;;;;;;;;;;18.64;60.41;95875.91;5073529;28;20030;-73
2022/08/17 02:36:40;;;;;;;;;;;;;;;18.62;60.88;95870.06;5072536;28;19978;-73
2022/08/17 02:39:07;;;;;;;;;;;;;;;18.63;60.91;95878.84;5073248;28;20045;-74
2022/08/17 02:41:33;;;;;;;;;;;;;;;18.63;60.87;95884.97;5071729;28;19956;-73
2022/08/17 02:43:59;;;;;;;;;;;;;;;18.60;60.77;95882.06;5073401;28;19963;-73
2022/08/17 02:46:25;;;;;;;;;;;;;;;18.60;60.82;95882.06;5073437;28;19967;-75
2022/08/17 02:48:51;;;;;;;;;;;;;;;18.59;60.54;95878.63;5073250;28;19957;-73
2022/08/17 02:51:17;;;;;;;;;;;;;;;18.59;60.71;95883.94;5073212;28;19956;-74
2022/08/17 02:53:43;;;;;;;;;;;;;;;18.58;60.48;95890.34;5073085;28;20038;-75
2022/08/17 02:56:08;;;;;;;;;;;;;;;18.59;61.03;95891.13;5073292;28;20064;-73
2022/08/17 02:58:34;;;;;;;;;;;;;;;18.56;61.07;95891.66;5073049;28;20359;-74
2022/08/17 03:01:00;;;;;;;;;;;;;;;18.55;61.93;95901.50;5061786;28;19964;-73
2022/08/17 03:03:26;;;;;;;;;;;;;;;18.51;61.41;95897.03;5073466;28;20007;-73
2022/08/17 03:05:52;;;;;;;;;;;;;;;18.51;61.10;95907.66;5073363;28;19965;-73
2022/08/17 03:08:18;;;;;;;;;;;;;;;18.49;61.14;95909.81;5073156;28;20011;-75
2022/08/17 03:10:45;;;;;;;;;;;;;;;18.45;61.81;95926.28;5073482;28;19950;-73
2022/08/17 03:13:13;;;;;;;;;;;;;;;18.43;62.09;95925.78;5072913;28;19956;-73
2022/08/17 03:15:39;;;;;;;;;;;;;;;18.40;62.01;95938.84;5072822;28;20338;-72
2022/08/17 03:18:06;;;;;;;;;;;;;;;18.38;62.02;95941.75;5073204;28;19957;-73
2022/08/17 03:20:32;;;;;;;;;;;;;;;18.33;62.10;95939.16;5073428;28;19965;-73
2022/08/17 03:22:58;;;;;;;;;;;;;;;18.29;62.04;95942.63;5076525;28;19952;-72
2022/08/17 03:25:36;;;;;;;;;;;;;;;18.25;62.21;95942.44;5076488;28;19954;-72
2022/08/17 03:28:02;;;;;;;;;;;;;;;18.23;61.93;95948.00;5076552;28;20027;-72
2022/08/17 03:30:28;;;;;;;;;;;;;;;18.19;62.06;95954.94;5076240;28;19958;-72
2022/08/17 03:32:56;;;;;;;;;;;;;;;18.14;61.70;95948.88;5076867;28;19959;-72
2022/08/17 03:35:24;;;;;;;;;;;;;;;18.04;62.33;95947.91;5076259;28;19957;-72
2022/08/17 03:37:50;;;;;;;;;;;;;;;17.96;62.58;95945.03;5076494;28;19978;-72
2022/08/17 03:40:16;;;;;;;;;;;;;;;17.92;63.10;95936.84;5076096;28;19956;-73
2022/08/17 03:42:42;;;;;;;;;;;;;;;17.90;62.76;95930.22;5076312;28;19988;-72
2022/08/17 03:45:13;;;;;;;;;;;;;;;17.87;62.92;95930.78;5075859;28;19972;-73
2022/08/17 03:58:43;;;;;;;;;;;;;;;17.72;64.18;95935.09;5076508;28;19964;-72
2022/08/17 04:01:09;;;;;;;;;;;;;;;17.71;63.90;95928.22;5075823;28;19990;-72
2022/08/17 04:03:34;;;;;;;;;;;;;;;17.73;63.98;95920.78;5076112;28;20422;-72
2022/08/17 04:06:01;;;;;;;;;;;;;;;17.74;64.04;95930.28;5075685;28;19964;-72
2022/08/17 04:08:27;;;;;;;;;;;;;;;17.76;64.14;95935.34;5075889;28;19954;-72
2022/08/17 04:10:54;;;;;;;;;;;;;;;17.77;64.00;95939.59;5075762;28;19957;-73
2022/08/17 04:13:20;;;;;;;;;;;;;;;17.79;63.83;95940.09;5066222;28;19958;-72
2022/08/17 04:15:48;;;;;;;;;;;;;;;17.79;63.73;95945.41;5075845;28;19963;-72
2022/08/17 04:18:14;;;;;;;;;;;;;;;17.67;64.17;95952.91;5075363;28;20351;-72
2022/08/17 04:20:40;;;;;;;;;;;;;;;17.54;63.84;95943.72;5060132;28;19952;-72
2022/08/17 04:23:08;;;;;;;;;;;;;;;17.46;64.45;95955.66;5075455;28;20008;-73
2022/08/17 04:25:35;;;;;;;;;;;;;;;17.45;64.49;95959.41;5075229;28;19954;-73
2022/08/17 04:28:02;;;;;;;;;;;;;;;17.48;64.79;95960.72;5075338;28;19958;-74
2022/08/17 04:30:30;;;;;;;;;;;;;;;17.49;64.64;95954.31;5075130;28;19963;-75
2022/08/17 04:32:57;;;;;;;;;;;;;;;17.51;64.89;95958.28;5075097;28;19953;-74
2022/08/17 04:35:24;;;;;;;;;;;;;;;17.54;64.91;95964.91;5075019;28;19958;-73
2022/08/17 04:37:51;;;;;;;;;;;;;;;17.56;65.39;95973.38;5075472;28;19977;-74
2022/08/17 04:43:07;;;;;;;;;;;;;;;17.62;65.54;95988.22;5075330;28;19954;-74
2022/08/17 04:45:33;;;;;;;;;;;;;;;17.63;66.36;96009.13;5074960;28;19963;-74
2022/08/17 04:47:59;;;;;;;;;;;;;;;17.63;65.87;95993.22;5074834;28;19964;-74
2022/08/17 04:50:26;;;;;;;;;;;;;;;17.59;65.97;95978.91;5075219;28;19950;-74
2022/08/17 04:52:51;;;;;;;;;;;;;;;17.59;66.36;95978.13;5074830;28;20419;-74
2022/08/17 04:55:17;;;;;;;;;;;;;;;17.61;65.36;95968.03;5074791;28;19959;-74
2022/08/17 04:57:43;;;;;;;;;;;;;;;17.69;66.37;95972.78;5074664;28;20452;-74
2022/08/17 05:00:09;;;;;;;;;;;;;;;17.81;65.86;95961.84;5075303;28;19993;-75
2022/08/17 05:02:56;;;;;;;;;;;;;;;17.95;65.33;95959.38;5074588;28;20435;-74
2022/08/17 05:05:24;;;;;;;;;;;;;;;18.09;64.54;95959.53;5074134;28;19964;-74
2022/08/17 05:07:51;;;;;;;;;;;;;;;18.19;64.66;95965.56;5074528;28;19955;-74
2022/08/17 05:10:16;;;;;;;;;;;;;;;18.33;64.24;95960.41;5074352;28;19959;-74
2022/08/17 05:12:42;;;;;;;;;;;;;;;18.46;64.12;95967.72;5074442;28;20344;-74
2022/08/17 05:15:14;;;;;;;;;;;;;;;18.57;64.06;95964.97;5074614;28;20010;-74
2022/08/17 05:17:41;;;;;;;;;;;;;;;18.73;63.60;95966.41;5074234;28;20425;-74
2022/08/17 05:20:08;;;;;;;;;;;;;;;18.94;63.20;95952.91;5074311;28;19948;-74
2022/08/17 05:22:33;;;;;;;;;;;;;;;19.19;62.65;95941.19;5074174;28;19968;-77
2022/08/17 05:24:59;;;;;;;;;;;;;;;19.52;62.15;95943.97;5074163;28;20331;-74
2022/08/17 05:27:25;;;;;;;;;;;;;;;19.82;61.39;95934.75;5073014;28;19994;-74
2022/08/17 05:29:51;;;;;;;;;;;;;;;20.06;60.65;95935.47;5073986;28;19962;-74
2022/08/17 05:32:21;;;;;;;;;;;;;;;20.39;59.82;95931.97;5074329;28;20411;-73
2022/08/17 05:34:47;;;;;;;;;;;;;;;20.73;58.82;95917.56;5074079;28;19959;-76
2022/08/17 05:37:13;;;;;;;;;;;;;;;21.03;57.53;95897.50;5074007;28;20353;-74
2022/08/17 05:39:38;;;;;;;;;;;;;;;21.30;57.14;95902.00;5074003;28;20021;-73
2022/08/17 05:42:05;;;;;;;;;;;;;;;21.61;56.66;95898.72;5072643;28;19960;-73
2022/08/17 05:44:30;;;;;;;;;;;;;;;21.94;55.42;95890.44;5073416;28;19969;-74
2022/08/17 05:46:58;;;;;;;;;;;;;;;22.19;53.90;95871.13;5073688;28;20034;-74
2022/08/17 05:49:26;;;;;;;;;;;;;;;22.33;53.54;95876.41;5073724;28;19957;-73
2022/08/17 05:52:04;;;;;;;;;;;;;;;22.46;52.96;95880.88;5073964;28;19970;-74
2022/08/17 05:54:45;;;;;;;;;;;;;;;22.56;53.30;95905.75;5074147;28;19989;-74
2022/08/17 05:57:24;;;;;;;;;;;;;;;22.43;53.57;95918.13;5073671;28;19973;-74
2022/08/17 06:00:04;;;;;;;;;;;;;;;22.33;53.57;95919.16;5074064;28;19959;-75
2022/08/17 06:02:45;;;;;;;;;;;;;;;22.31;53.04;95931.25;5074013;28;19965;-74
2022/08/17 06:05:31;;;;;;;;;;;;;;;22.06;53.62;95933.41;5073663;28;20439;-74
2022/08/17 06:07:57;;;;;;;;;;;;;;;21.79;54.26;95943.09;5060348;28;19957;-74
2022/08/17 06:10:39;;;;;;;;;;;;;;;21.57;54.98;95962.56;5073564;28;20338;-74
2022/08/17 06:13:05;;;;;;;;;;;;;;;21.27;55.39;95967.41;5074042;28;19959;-74
2022/08/17 06:15:38;;;;;;;;;;;;;;;21.11;56.23;95978.69;5074086;28;20037;-74
2022/08/17 06:18:07;;;;;;;;;;;;;;;20.94;57.51;95984.59;5062238;28;19974;-74
2022/08/17 06:20:44;;;;;;;;;;;;;;;20.72;57.25;95983.38;5073577;28;19962;-73
2022/08/17 06:23:13;;;;;;;;;;;;;;;20.81;58.33;95997.63;5062067;28;19988;-73
2022/08/17 06:25:47;;;;;;;;;;;;;;;21.01;58.37;96000.97;5073730;28;19982;-73
2022/08/17 06:28:18;;;;;;;;;;;;;;;21.01;57.38;95993.00;5073365;28;19968;-74
2022/08/17 06:30:56;;;;;;;;;;;;;;;20.88;57.31;95992.69;5073611;28;19962;-74
2022/08/17 06:33:28;;;;;;;;;;;;;;;20.71;58.09;95991.69;5073296;28;19963;-72
2022/08/17 06:36:01;;;;;;;;;;;;;;;20.57;58.22;95996.94;5073636;28;19963;-74
2022/08/17 06:38:32;;;;;;;;;;;;;;;20.40;58.55;95992.94;5073903;28;19974;-74
2022/08/17 06:41:06;;;;;;;;;;;;;;;20.32;58.92;96009.59;5073532;28;19960;-74
2022/08/17 06:43:32;;;;;;;;;;;;;;;20.28;59.37;96000.59;5072339;28;19977;-74
2022/08/17 06:46:04;;;;;;;;;;;;;;;20.25;59.62;95987.88;5073644;28;19993;-73
2022/08/17 06:48:33;;;;;;;;;;;;;;;20.24;59.17;95987.09;5073116;28;20445;-74
2022/08/17 06:51:02;;;;;;;;;;;;;;;20.36;60.15;96001.81;5073220;28;20329;-74
2022/08/17 06:53:41;;;;;;;;;;;;;;;20.76;58.37;95971.03;5073025;28;19962;-74
2022/08/17 06:56:09;;;;;;;;;;;;;;;21.36;57.21;95977.38;5074198;28;19963;-74
2022/08/17 06:58:36;;;;;;;;;;;;;;;21.84;55.66;95952.91;5076772;28;20309;-74
2022/08/17 07:01:23;;;;;;;;;;;;;;;22.03;53.29;95926.81;5076946;28;19963;-74
2022/08/17 07:04:11;;;;;;;;;;;;;;;21.93;54.63;95932.38;5076920;28;20302;-74
2022/08/17 07:06:49;;;;;;;;;;;;;;;21.93;53.66;95919.03;5076609;28;19965;-75
2022/08/17 07:09:16;;;;;;;;;;;;;;;22.33;53.84;95921.03;5076718;28;19972;-74
2022/08/17 07:11:50;;;;;;;;;;;;;;;22.73;53.37;95923.75;5076435;28;19959;-74
2022/08/17 07:14:32;;;;;;;;;;;;;;;23.06;52.44;95916.97;5076818;28;19991;-74
2022/08/17 07:17:01;;;;;;;;;;;;;;;23.23;51.59;95924.25;5076553;28;19973;-75
2022/08/17 07:19:30;;;;;;;;;;;;;;;23.23;51.65;95942.97;5076780;28;20426;-74
2022/08/17 07:22:04;;;;;;;;;;;;;;;23.33;51.33;95941.09;5077242;28;19967;-73
2022/08/17 07:24:50;;;;;;;;;;;;;;;23.29;52.00;95946.28;5076565;28;19954;-74
2022/08/17 07:27:20;;;;;;;;;;;;;;;23.28;51.14;95948.16;5076592;28;19964;-74
2022/08/17 07:29:52;;;;;;;;;;;;;;;23.24;50.26;95941.84;5076411;28;19969;-76
2022/08/17 07:32:21;;;;;;;;;;;;;;;23.15;51.42;95953.66;5076401;28;19959;-73
2022/08/17 07:34:59;;;;;;;;;;;;;;;23.11;52.60;95966.84;5076847;28;19963;-74
2022/08/17 07:37:25;;;;;;;;;;;;;;;23.08;52.16;95954.09;5075651;28;20329;-74
2022/08/17 07:39:51;;;;;;;;;;;;;;;23.00;51.74;95954.84;5074929;28;19967;-73
2022/08/17 07:42:17;;;;;;;;;;;;;;;22.95;52.51;95969.13;5076256;28;19963;-74
2022/08/17 07:44:54;;;;;;;;;;;;;;;22.93;52.35;95962.50;5075966;28;20317;-73
2022/08/17 07:50:26;;;;;;;;;;;;;;;23.09;53.23;95963.69;5064006;28;19953;-75
2022/08/17 07:52:52;;;;;;;;;;;;;;;23.21;51.47;95950.50;5075978;28;19959;-73
2022/08/17 07:55:30;;;;;;;;;;;;;;;23.34;50.99;95951.47;5075991;28;20045;-74
2022/08/17 07:57:57;;;;;;;;;;;;;;;23.52;50.51;95955.00;5075973;28;19990;-74
2022/08/17 08:00:23;;;;;;;;;;;;;;;23.71;51.01;95960.03;5075911;28;19964;-73
2022/08/17 08:03:21;;;;;;;;;;;;;;;23.78;50.80;95956.94;5075756;28;19964;-74
2022/08/17 08:05:49;;;;;;;;;;;;;;;23.68;50.01;95956.09;5063751;28;20309;-73
2022/08/17 08:08:18;;;;;;;;;;;;;;;23.56;50.96;95972.00;5075721;28;19959;-74
2022/08/17 08:10:55;;;;;;;;;;;;;;;23.45;51.49;95973.38;5075898;28;19962;-74
2022/08/17 08:13:23;;;;;;;;;;;;;;;23.39;50.93;95982.66;5074552;28;19976;-75
2022/08/17 08:15:50;;;;;;;;;;;;;;;23.34;52.00;95996.97;5075283;28;19962;-75
2022/08/17 08:18:25;;;;;;;;;;;;;;;23.29;50.67;95975.72;5059295;28;19978;-74
2022/08/17 08:21:00;;;;;;;;;;;;;;;23.21;52.00;95992.53;5075247;28;19972;-74
2022/08/17 08:23:48;;;;;;;;;;;;;;;23.18;50.94;95993.13;5074794;28;19961;-74
2022/08/17 08:26:28;;;;;;;;;;;;;;;23.11;50.98;95998.94;5075566;28;19968;-74
2022/08/17 08:29:00;;;;;;;;;;;;;;;23.05;51.44;95994.81;5075275;28;19967;-73
2022/08/17 08:31:26;;;;;;;;;;;;;;;23.02;50.65;95982.09;5075480;28;19956;-74
2022/08/17 08:33:55;;;;;;;;;;;;;;;23.03;51.56;95986.31;5075254;28;19960;-74
2022/08/17 08:36:29;;;;;;;;;;;;;;;23.03;51.21;95987.09;5075317;28;19961;-73
2022/08/17 08:39:05;;;;;;;;;;;;;;;23.02;51.49;95982.09;5075091;28;19968;-73
2022/08/17 08:41:51;;;;;;;;;;;;;;;23.03;51.67;95992.44;5073910;28;19979;-73
2022/08/17 08:44:29;;;;;;;;;;;;;;;23.05;52.59;96022.34;5074882;28;20395;-74
2022/08/17 08:46:59;;;;;;;;;;;;;;;23.07;54.42;96057.59;5075263;28;19977;-74
2022/08/17 08:49:31;;;;;;;;;;;;;;;23.06;54.09;96057.94;5074696;28;19957;-74
2022/08/17 08:51:58;;;;;;;;;;;;;;;23.05;51.51;96030.38;5074931;28;19960;-74
2022/08/17 08:54:33;;;;;;;;;;;;;;;23.01;51.23;96028.63;5074979;28;19959;-73
2022/08/17 08:57:02;;;;;;;;;;;;;;;22.94;52.04;96036.28;5074623;28;20023;-76
2022/08/17 08:59:51;;;;;;;;;;;;;;;22.94;53.97;96057.69;5073738;28;19950;-74
2022/08/17 09:02:28;;;;;;;;;;;;;;;22.92;52.11;96038.47;5054669;28;20411;-74
2022/08/17 09:05:12;;;;;;;;;;;;;;;22.89;52.29;96035.31;5074667;28;19962;-74
2022/08/17 09:07:38;;;;;;;;;;;;;;;22.87;51.89;96026.03;5074412;28;20342;-74
2022/08/17 09:10:09;;;;;;;;;;;;;;;22.85;52.91;96030.91;5074665;28;19955;-74
2022/08/17 09:12:40;;;;;;;;;;;;;;;22.87;59.29;96092.88;5074611;28;20407;-74
2022/08/17 09:15:14;;;;;;;;;;;;;;;22.84;58.09;96075.53;5060990;28;20038;-75
2022/08/17 09:17:46;;;;;;;;;;;;;;;22.83;57.71;96084.66;5074494;28;19981;-75
2022/08/17 09:20:24;;;;;;;;;;;;;;;22.76;58.17;96078.94;5073591;28;19966;-76
2022/08/17 09:22:54;;;;;;;;;;;;;;;22.68;59.30;96069.00;5074785;28;19979;-74
2022/08/17 09:25:25;;;;;;;;;;;;;;;22.62;60.86;96084.38;5074334;28;19950;-74
2022/08/17 09:27:56;;;;;;;;;;;;;;;22.57;60.68;96071.13;5073277;28;19956;-75
2022/08/17 09:30:23;;;;;;;;;;;;;;;22.53;59.93;96070.16;5074256;28;19955;-75
2022/08/17 09:32:53;;;;;;;;;;;;;;;22.43;60.50;96073.88;5074020;28;19957;-75
2022/08/17 09:35:22;;;;;;;;;;;;;;;22.35;60.42;96069.25;5074089;28;19966;-75
2022/08/17 09:38:07;;;;;;;;;;;;;;;22.29;60.22;96071.22;5074148;28;19973;-74
2022/08/17 09:40:36;;;;;;;;;;;;;;;22.23;61.94;96083.13;5061148;28;19969;-74
2022/08/17 09:43:02;;;;;;;;;;;;;;;22.21;61.06;96085.28;5072608;28;19961;-73
2022/08/17 09:45:30;;;;;;;;;;;;;;;22.20;60.94;96091.72;5074116;28;20010;-73
2022/08/17 09:48:00;;;;;;;;;;;;;;;22.19;61.09;96092.78;5073723;28;19964;-73
2022/08/17 09:50:29;;;;;;;;;;;;;;;22.17;60.12;96080.84;5073862;28;19957;-73
2022/08/17 09:52:56;;;;;;;;;;;;;;;22.13;59.62;96071.84;5073680;28;20424;-73
2022/08/17 09:55:25;;;;;;;;;;;;;;;22.08;60.37;96084.22;5073614;28;19964;-73
2022/08/17 09:58:03;;;;;;;;;;;;;;;22.09;60.36;96074.34;5073686;28;19970;-74
2022/08/17 10:00:34;;;;;;;;;;;;;;;22.09;60.94;96075.13;5073961;28;20024;-74
2022/08/17 10:03:19;;;;;;;;;;;;;;;22.10;60.51;96070.56;5073633;28;19960;-73
2022/08/17 10:06:05;;;;;;;;;;;;;;;22.13;60.68;96074.53;5073542;28;19966;-73
2022/08/17 10:08:35;;;;;;;;;;;;;;;22.14;60.03;96068.88;5073912;28;19960;-74
2022/08/17 10:11:04;;;;;;;;;;;;;;;22.15;61.29;96081.13;5080862;28;20328;-75
2022/08/17 10:13:50;;;;;;;;;;;;;;;22.19;62.98;96086.66;5073713;28;19962;-76
2022/08/17 10:16:21;;;;;;;;;;;;;;;22.16;64.69;96092.63;5073813;28;19972;-74
2022/08/17 10:19:01;;;;;;;;;;;;;;;22.10;65.18;96092.72;5060018;28;20329;-73
2022/08/17 10:27:02;;;;;;;;;;;;;;;21.81;66.38;96118.97;5073780;28;19956;-76
2022/08/17 10:29:28;;;;;;;;;;;;;;;21.68;66.91;96132.03;5068827;28;19956;-77
2022/08/17 10:32:00;;;;;;;;;;;;;;;21.57;66.88;96140.53;5072500;28;19960;-78
2022/08/17 10:34:26;;;;;;;;;;;;;;;21.52;68.76;96159.28;5068408;28;19956;-76
2022/08/17 10:37:04;;;;;;;;;;;;;;;21.41;69.22;96156.78;5077835;28;19956;-75
2022/08/17 10:39:46;;;;;;;;;;;;;;;21.26;71.48;96149.84;5064078;28;19967;-75
2022/08/17 10:42:21;;;;;;;;;;;;;;;21.11;69.15;96144.00;5076049;28;19954;-74
2022/08/17 10:44:55;;;;;;;;;;;;;;;20.99;70.93;96155.88;5077950;28;20397;-74
2022/08/17 10:47:23;;;;;;;;;;;;;;;20.88;71.24;96151.81;5077479;28;19953;-75
2022/08/17 10:49:54;;;;;;;;;;;;;;;20.80;71.43;96153.25;5077382;28;19954;-74
2022/08/17 10:52:26;;;;;;;;;;;;;;;20.75;73.71;96152.56;5077716;28;19959;-74
2022/08/17 10:54:55;;;;;;;;;;;;;;;20.64;70.03;96146.56;5076987;28;19954;-74
2022/08/17 10:57:33;;;;;;;;;;;;;;;20.56;71.20;96165.88;5076942;28;20322;-74
2022/08/17 11:00:06;;;;;;;;;;;;;;;20.52;71.29;96165.66;5076913;28;19958;-74
2022/08/17 11:02:38;;;;;;;;;;;;;;;20.53;72.06;96161.88;5076838;28;19969;-74
2022/08/17 11:05:27;;;;;;;;;;;;;;;20.53;69.48;96153.09;5076807;28;20337;-74
2022/08/17 11:08:12;;;;;;;;;;;;;;;20.50;72.11;96167.81;5074028;28;19955;-73
2022/08/17 11:10:49;;;;;;;;;;;;;;;20.52;72.13;96178.19;5076750;28;19963;-74
2022/08/17 11:13:36;;;;;;;;;;;;;;;20.57;71.52;96181.53;5076578;28;20282;-74
2022/08/17 11:16:11;;;;;;;;;;;;;;;20.66;72.87;96195.03;5066173;28;20419;-74
2022/08/17 11:18:52;;;;;;;;;;;;;;;20.78;73.39;96203.38;5076537;28;19970;-74
2022/08/17 11:21:27;;;;;;;;;;;;;;;20.87;73.78;96204.34;5069691;28;20318;-74
2022/08/17 11:24:10;;;;;;;;;;;;;;;21.01;72.16;96199.03;5076462;28;19986;-73
2022/08/17 11:26:40;;;;;;;;;;;;;;;21.12;72.08;96194.34;5076735;28;20430;-74
2022/08/17 11:29:17;;;;;;;;;;;;;;;21.24;71.88;96201.88;5076199;28;20314;-74
2022/08/17 11:31:45;;;;;;;;;;;;;;;21.32;74.61;96211.91;5076690;28;19978;-73
2022/08/17 11:34:25;;;;;;;;;;;;;;;21.33;72.69;96205.47;5076278;28;19955;-74
2022/08/17 11:37:00;;;;;;;;;;;;;;;21.37;71.67;96195.78;5061479;28;19957;-74
2022/08/17 11:39:26;;;;;;;;;;;;;;;21.43;69.81;96178.66;5076206;28;20309;-74
2022/08/17 11:42:10;;;;;;;;;;;;;;;21.48;69.58;96183.91;5075401;28;20001;-74
2022/08/17 11:44:51;;;;;;;;;;;;;;;21.56;68.54;96169.06;5076734;28;19968;-76
2022/08/17 11:53:28;;;;;;;;;;;;;;;21.67;69.81;96154.47;5062620;28;20413;-73
2022/08/17 11:55:56;;;;;;;;;;;;;;;21.65;68.80;96145.97;5076294;28;20404;-74
2022/08/17 11:58:29;;;;;;;;;;;;;;;21.67;68.54;96135.78;5075714;28;19966;-73
2022/08/17 12:01:01;;;;;;;;;;;;;;;21.73;71.63;96151.69;5075952;28;19954;-74
2022/08/17 12:03:33;;;;;;;;;;;;;;;21.79;69.23;96137.94;5075703;28;19956;-74
2022/08/17 12:06:04;;;;;;;;;;;;;;;21.84;68.92;96124.50;5075986;28;20437;-74
2022/08/17 12:08:32;;;;;;;;;;;;;;;21.89;67.41;96111.06;5075605;28;19955;-74
2022/08/17 12:11:02;;;;;;;;;;;;;;;21.91;67.50;96118.78;5075958;28;19968;-73
2022/08/17 12:13:29;;;;;;;;;;;;;;;21.89;67.50;96102.25;5075364;28;19968;-74
2022/08/17 12:15:56;;;;;;;;;;;;;;;21.89;66.42;96076.34;5075670;28;20028;-74
2022/08/17 12:18:24;;;;;;;;;;;;;;;21.97;67.15;96069.53;5075660;28;19995;-74
2022/08/17 12:21:10;;;;;;;;;;;;;;;22.13;69.02;96075.31;5075523;28;20452;-74
2022/08/17 12:23:41;;;;;;;;;;;;;;;22.51;68.71;96077.72;5063125;28;19959;-73
2022/08/17 12:26:13;;;;;;;;;;;;;;;22.99;67.03;96077.03;5075798;28;20485;-73
2022/08/17 12:28:43;;;;;;;;;;;;;;;23.28;63.04;96065.09;5075749;28;19957;-74
2022/08/17 12:31:23;;;;;;;;;;;;;;;23.36;63.17;96068.91;5075342;28;19955;-73
2022/08/17 12:33:50;;;;;;;;;;;;;;;23.46;64.55;96082.81;5075522;28;19956;-74
2022/08/17 12:36:20;;;;;;;;;;;;;;;23.58;63.28;96071.50;5075091;28;20411;-73
2022/08/17 12:38:56;;;;;;;;;;;;;;;23.68;62.39;96065.84;5075274;28;19972;-73
2022/08/17 12:41:30;;;;;;;;;;;;;;;23.86;62.10;96063.25;5075075;28;20324;-73
2022/08/17 12:43:57;;;;;;;;;;;;;;;24.01;61.24;96044.03;5074032;28;19966;-75
2022/08/17 12:46:23;;;;;;;;;;;;;;;24.07;59.73;96031.28;5075235;28;19961;-74
2022/08/17 12:48:49;;;;;;;;;;;;;;;24.26;61.38;96047.06;5074896;28;20005;-74
2022/08/17 12:51:15;;;;;;;;;;;;;;;24.52;57.51;96004.16;5074793;28;19967;-73
2022/08/17 12:53:48;;;;;;;;;;;;;;;24.67;54.06;95965.34;5074450;28;19974;-74
2022/08/17 12:56:14;;;;;;;;;;;;;;;24.82;54.26;95972.88;5075159;28;19964;-73
2022/08/17 12:58:47;;;;;;;;;;;;;;;24.95;53.50;95962.22;5074977;28;19970;-73
2022/08/17 13:01:14;;;;;;;;;;;;;;;25.01;46.62;95888.50;5074730;28;19960;-73
2022/08/17 13:03:42;;;;;;;;;;;;;;;25.07;50.54;95955.09;5074509;28;19970;-73
2022/08/17 13:06:10;;;;;;;;;;;;;;;25.16;53.39;95995.31;5074950;28;20339;-73
2022/08/17 13:08:36;;;;;;;;;;;;;;;25.24;50.20;95983.78;5074449;28;20013;-74
2022/08/17 13:11:17;;;;;;;;;;;;;;;25.25;50.83;95992.59;5074702;28;19957;-73
2022/08/17 13:13:45;;;;;;;;;;;;;;;25.20;48.46;95982.00;5074406;28;20000;-74
2022/08/17 13:16:11;;;;;;;;;;;;;;;25.19;50.89;95989.28;5074532;28;19958;-73
2022/08/17 13:18:46;;;;;;;;;;;;;;;25.34;50.29;95995.22;5074495;28;20061;-73
2022/08/17 13:21:18;;;;;;;;;;;;;;;25.52;49.53;95989.44;5073318;28;19960;-74
2022/08/17 13:23:58;;;;;;;;;;;;;;;25.61;48.17;95978.63;5074041;28;19964;-73
2022/08/17 13:26:32;;;;;;;;;;;;;;;25.81;46.46;95966.34;5074720;28;19961;-73
2022/08/17 13:28:59;;;;;;;;;;;;;;;26.04;49.91;96003.63;5074182;28;19952;-74
2022/08/17 13:31:26;;;;;;;;;;;;;;;26.22;49.22;95983.56;5073999;28;20430;-74
2022/08/17 13:34:12;;;;;;;;;;;;;;;26.31;46.82;95975.44;5074188;28;19958;-76